Time;durP1;ratioP1;P1;durP2;ratioP2;P2;SDS_P1;SDS_P2;PMS_P1;PMS_P2;Temp;Humidity;BMP_temperature;BMP_pressure;BME280_temperature;BME280_humidity;BME280_pressure;Samples;Min_cycle;Max_cycle;Signal;HPM_P1;HPM_P2
2022/07/23 00:04:49;;;;;;;12.90;11.60;;;;;;;19.41;63.06;99512.34;430672;1270;142474;-59
2022/07/23 00:14:55;;;;;;;14.90;11.50;;;;;;;19.30;63.42;99512.37;431315;1271;143091;-58
2022/07/23 00:25:01;;;;;;;11.80;10.70;;;;;;;19.24;63.64;99512.46;431847;1270;193792;-60
2022/07/23 00:35:29;;;;;;;15.90;14.30;;;;;;;19.15;63.92;99524.56;431976;1271;142329;-59
2022/07/23 00:45:35;;;;;;;18.20;15.10;;;;;;;19.07;64.42;99533.47;432270;1271;143942;-58
2022/07/23 00:55:42;;;;;;;12.90;11.70;;;;;;;19.14;64.02;99531.92;430856;1271;148037;-59
2022/07/23 01:05:48;;;;;;;12.60;11.40;;;;;;;18.89;64.70;99531.89;432266;1270;142306;-59
2022/07/23 01:15:54;;;;;;;11.70;10.40;;;;;;;18.85;64.99;99530.45;431782;1270;142332;-60
2022/07/23 01:25:59;;;;;;;13.30;10.90;;;;;;;18.73;65.31;99526.02;431302;1270;143040;-60
2022/07/23 01:36:06;;;;;;;13.00;11.80;;;;;;;18.68;65.48;99530.03;431310;1271;142280;-59
2022/07/23 01:46:12;;;;;;;10.60;9.60;;;;;;;18.61;65.64;99531.66;431640;1271;143502;-58
2022/07/23 01:56:20;;;;;;;11.20;10.10;;;;;;;18.43;65.94;99520.55;430754;1271;141772;-58
2022/07/23 02:06:26;;;;;;;14.80;9.60;;;;;;;18.33;66.28;99509.70;431380;1271;146868;-60
2022/07/23 02:16:32;;;;;;;11.40;9.90;;;;;;;18.20;66.25;99519.87;431298;1270;142689;-61
2022/07/23 02:26:38;;;;;;;10.80;9.40;;;;;;;18.05;66.75;99522.31;431825;1270;143831;-59
2022/07/23 02:36:44;;;;;;;10.00;8.70;;;;;;;17.90;67.21;99521.78;432037;1270;141795;-59
2022/07/23 02:46:50;;;;;;;9.50;8.70;;;;;;;17.73;67.64;99514.91;431016;1271;142221;-60
2022/07/23 02:56:56;;;;;;;11.70;10.60;;;;;;;17.58;67.91;99513.80;431440;1271;141914;-59
2022/07/23 03:07:02;;;;;;;10.90;9.80;;;;;;;17.55;68.25;99514.17;431660;1271;142252;-58
2022/07/23 03:17:08;;;;;;;11.70;9.20;;;;;;;17.57;68.48;99507.54;431276;1271;143081;-59
2022/07/23 03:27:14;;;;;;;10.60;9.10;;;;;;;17.91;68.22;99500.98;431873;1271;142004;-59
2022/07/23 03:37:21;;;;;;;11.70;9.50;;;;;;;18.19;67.68;99499.73;431669;1271;147292;-58
2022/07/23 03:47:26;;;;;;;10.70;8.90;;;;;;;18.44;67.41;99504.42;432040;1271;142650;-59
2022/07/23 03:57:32;;;;;;;10.40;9.40;;;;;;;18.79;67.24;99502.59;431387;1271;142190;-62
2022/07/23 04:07:38;;;;;;;10.50;9.00;;;;;;;19.23;66.57;99502.10;431085;1270;142549;-61
2022/07/23 04:17:44;;;;;;;11.10;10.00;;;;;;;20.14;66.24;99499.67;431503;1271;141401;-58
2022/07/23 04:27:50;;;;;;;18.20;9.90;;;;;;;26.51;60.36;99493.72;431655;1270;142485;-58
2022/07/23 04:37:56;;;;;;;20.60;9.40;;;;;;;32.66;50.01;99488.38;430821;1271;142091;-58
2022/07/23 04:48:02;;;;;;;13.50;8.50;;;;;;;36.89;42.27;99483.18;431999;1271;141932;-61
2022/07/23 04:58:08;;;;;;;11.10;9.20;;;;;;;39.60;36.50;99484.86;431828;1270;141859;-59
2022/07/23 05:08:14;;;;;;;8.60;7.40;;;;;;;41.83;32.28;99482.15;430980;1270;145605;-58
2022/07/23 05:18:20;;;;;;;7.70;6.40;;;;;;;44.34;28.84;99480.66;431323;1271;142613;-59
2022/07/23 05:28:26;;;;;;;7.10;6.40;;;;;;;46.11;26.05;99481.13;431860;1270;141572;-58
2022/07/23 05:38:33;;;;;;;7.60;6.00;;;;;;;47.22;23.84;99472.23;431639;1271;203709;-57
2022/07/23 05:48:39;;;;;;;8.80;5.80;;;;;;;49.60;21.79;99468.47;431878;1270;145175;-58
2022/07/23 05:58:45;;;;;;;8.30;4.30;;;;;;;51.74;19.32;99461.77;430912;1270;142004;-58
2022/07/23 06:08:50;;;;;;;5.40;4.60;;;;;;;53.44;17.42;99452.90;431833;1270;141338;-60
2022/07/23 06:18:56;;;;;;;4.60;3.80;;;;;;;53.94;15.97;99444.02;431185;1270;197287;-58
2022/07/23 06:29:03;;;;;;;4.30;4.00;;;;;;;54.23;15.11;99436.26;431034;1270;146922;-59
2022/07/23 06:39:09;;;;;;;6.30;5.70;;;;;;;56.01;14.25;99427.63;430928;1270;148147;-58
2022/07/23 06:49:15;;;;;;;7.20;6.80;;;;;;;57.45;13.16;99410.25;441824;1270;141844;-59
2022/07/23 06:59:21;;;;;;;9.20;8.80;;;;;;;57.92;12.48;99406.27;447064;1269;143039;-59
2022/07/23 07:09:27;;;;;;;11.70;11.00;;;;;;;58.88;11.60;99407.60;444169;1270;141766;-58
2022/07/23 07:19:33;;;;;;;10.00;9.60;;;;;;;57.97;11.70;99402.73;430406;1271;141544;-58
2022/07/23 07:29:39;;;;;;;11.00;10.50;;;;;;;56.82;11.84;99405.12;431262;1271;141070;-59
2022/07/23 07:39:45;;;;;;;12.30;11.40;;;;;;;57.67;11.53;99405.52;431142;1270;143156;-56
2022/07/23 07:49:51;;;;;;;12.00;11.20;;;;;;;57.94;11.16;99411.88;430544;1271;144871;-59
2022/07/23 07:59:57;;;;;;;10.20;9.70;;;;;;;57.60;11.26;99422.61;432489;1270;144364;-59
2022/07/23 08:10:11;;;;;;;4.90;4.50;;;;;;;56.71;11.30;99421.27;431469;1270;141492;-58
2022/07/23 08:20:19;;;;;;;4.80;4.40;;;;;;;50.26;13.27;99407.98;430358;1273;147152;-59
2022/07/23 08:30:25;;;;;;;7.50;4.70;;;;;;;44.22;16.79;99398.21;431248;1271;142220;-59
2022/07/23 08:40:33;;;;;;;5.60;5.00;;;;;;;41.79;18.75;99392.94;430689;1271;141185;-58
2022/07/23 08:50:46;;;;;;;5.00;4.30;;;;;;;40.29;20.41;99382.77;431375;1271;142214;-58
2022/07/23 09:00:53;;;;;;;4.60;4.20;;;;;;;39.08;21.36;99381.91;432276;1270;146095;-63
2022/07/23 09:11:01;;;;;;;5.00;4.60;;;;;;;38.04;22.52;99371.12;431607;1269;142573;-59
2022/07/23 09:21:16;;;;;;;5.70;5.20;;;;;;;37.58;23.49;99358.58;431822;1270;141908;-58
2022/07/23 09:31:22;;;;;;;6.10;5.20;;;;;;;37.52;23.84;99349.01;431920;1270;141097;-61
2022/07/23 09:41:37;;;;;;;6.10;5.70;;;;;;;36.75;24.30;99343.21;431521;1271;141600;-60
2022/07/23 09:51:53;;;;;;;5.80;5.40;;;;;;;36.11;25.46;99336.09;431664;1270;142088;-59
2022/07/23 10:02:00;;;;;;;6.50;5.80;;;;;;;36.34;25.32;99330.27;431354;1268;141777;-58
2022/07/23 10:22:37;;;;;;;7.00;5.40;;;;;;;36.15;25.72;99325.60;431443;1270;141775;-72
2022/07/23 10:32:53;;;;;;;7.80;6.00;;;;;;;36.07;25.44;99307.23;432177;1270;141237;-70
2022/07/23 10:43:02;;;;;;;6.00;5.60;;;;;;;35.88;25.32;99302.93;431291;1271;141756;-69
2022/07/23 10:53:17;;;;;;;7.10;5.00;;;;;;;35.79;25.38;99295.83;431996;1269;146173;-69
2022/07/23 11:03:39;;;;;;;6.90;5.80;;;;;;;36.04;25.22;99288.12;431437;1270;141232;-69
2022/07/23 11:13:49;;;;;;;7.00;5.20;;;;;;;36.45;24.69;99271.58;436365;1270;140601;-68
2022/07/23 11:24:04;;;;;;;11.20;5.90;;;;;;;36.80;24.23;99261.89;437631;1271;393406;-72
2022/07/23 11:34:31;;;;;;;;;;;;;;;36.69;23.78;99258.59;431589;1270;141928;-68
2022/07/23 11:44:39;;;;;;;6.60;6.00;;;;;;;36.08;24.12;99246.30;431912;1270;127645;-71
2022/07/23 11:54:53;;;;;;;6.70;6.10;;;;;;;36.19;24.02;99222.91;431292;1270;141126;-69
2022/07/23 12:04:59;;;;;;;5.70;4.70;;;;;;;36.22;24.01;99203.29;430956;1270;141794;-68
2022/07/23 12:15:08;;;;;;;6.70;5.60;;;;;;;36.32;23.90;99182.20;432024;1268;143472;-72
2022/07/23 12:25:19;;;;;;;9.00;5.90;;;;;;;35.66;24.32;99181.81;431778;1271;141821;-70
2022/07/23 12:35:31;;;;;;;11.70;6.30;;;;;;;35.88;24.34;99180.86;431282;1270;142375;-71
2022/07/23 12:45:49;;;;;;;7.00;6.30;;;;;;;35.17;24.79;99187.04;431898;1270;141426;-71
2022/07/23 12:56:01;;;;;;;12.40;5.00;;;;;;;33.68;28.12;99216.54;431412;1270;141464;-69
2022/07/23 13:06:20;;;;;;;7.70;5.10;;;;;;;28.58;38.34;99293.23;431853;1269;141894;-71
2022/07/23 13:16:28;;;;;;;8.80;4.80;;;;;;;25.51;44.74;99353.52;431386;1270;140987;-71
2022/07/23 13:26:34;;;;;;;6.90;4.50;;;;;;;24.07;49.60;99399.92;431890;1270;141548;-70
2022/07/23 13:36:40;;;;;;;6.10;5.50;;;;;;;22.78;55.19;99434.83;431295;1270;142196;-70
2022/07/23 13:46:46;;;;;;;7.00;5.50;;;;;;;21.63;59.20;99483.94;431350;1270;141951;-72
2022/07/23 13:56:53;;;;;;;6.90;6.20;;;;;;;21.01;61.89;99514.15;431494;1270;143147;-72
2022/07/23 14:06:59;;;;;;;7.50;6.70;;;;;;;20.63;64.29;99505.59;431501;1270;141993;-70
2022/07/23 14:17:06;;;;;;;7.40;6.10;;;;;;;20.41;66.20;99472.34;430941;1270;141952;-71
2022/07/23 14:27:16;;;;;;;8.00;6.30;;;;;;;20.34;66.61;99481.94;431535;1270;141793;-70
2022/07/23 14:37:24;;;;;;;6.30;5.70;;;;;;;20.29;67.04;99470.71;431752;1270;142096;-73
2022/07/23 14:47:30;;;;;;;6.00;5.50;;;;;;;20.27;67.33;99453.39;431483;1271;143280;-71
2022/07/23 14:57:37;;;;;;;6.50;5.80;;;;;;;20.41;67.27;99441.41;431041;1271;142908;-71
2022/07/23 15:07:42;;;;;;;7.30;6.60;;;;;;;20.37;67.77;99419.20;430755;1270;142728;-70
2022/07/23 15:17:48;;;;;;;6.50;5.90;;;;;;;20.31;68.18;99390.91;431381;1270;145706;-70
2022/07/23 15:27:55;;;;;;;10.50;6.20;;;;;;;20.80;68.37;99377.20;430926;1271;142543;-70
2022/07/23 15:38:01;;;;;;;6.40;5.80;;;;;;;21.64;67.09;99345.21;430283;1270;143834;-70
2022/07/23 15:48:18;;;;;;;5.70;5.10;;;;;;;21.67;66.42;99341.31;431578;1270;141587;-72
2022/07/23 15:58:25;;;;;;;5.70;5.20;;;;;;;21.55;66.12;99348.04;431993;1270;141996;-70
2022/07/23 16:08:31;;;;;;;7.50;6.80;;;;;;;21.48;66.31;99338.77;431879;1270;143593;-70
2022/07/23 16:18:37;;;;;;;6.00;5.50;;;;;;;21.57;66.36;99327.08;431565;1270;141905;-70
2022/07/23 16:28:43;;;;;;;6.30;5.70;;;;;;;21.78;66.22;99314.16;430197;1270;149042;-67
2022/07/23 16:38:49;;;;;;;6.30;5.80;;;;;;;21.84;65.41;99325.95;431883;1270;142417;-68
2022/07/23 16:48:55;;;;;;;7.10;5.30;;;;;;;21.83;65.49;99332.63;431765;1270;142378;-69
2022/07/23 16:59:02;;;;;;;6.90;5.70;;;;;;;21.72;65.39;99329.09;430800;1270;141265;-69
2022/07/23 17:09:09;;;;;;;6.90;6.20;;;;;;;21.44;65.71;99329.25;433963;1270;143530;-68
2022/07/23 17:19:16;;;;;;;6.30;5.80;;;;;;;21.20;66.02;99339.05;431516;1270;145735;-68
2022/07/23 17:29:22;;;;;;;11.80;6.60;;;;;;;21.05;66.23;99351.59;438067;1269;142440;-71
2022/07/23 17:39:28;;;;;;;8.20;6.50;;;;;;;21.12;67.23;99362.51;431320;1270;143168;-70
2022/07/23 17:49:34;;;;;;;9.20;6.60;;;;;;;21.37;67.86;99365.44;431153;1270;141256;-69
2022/07/23 17:59:40;;;;;;;7.00;6.30;;;;;;;21.57;68.18;99394.55;431589;1270;143255;-70
2022/07/23 18:09:47;;;;;;;13.00;7.50;;;;;;;21.50;68.54;99405.43;431661;1270;141341;-71
2022/07/23 18:19:53;;;;;;;8.10;7.40;;;;;;;21.42;68.84;99383.90;431228;1270;142693;-69
2022/07/23 18:29:59;;;;;;;14.90;7.80;;;;;;;21.18;69.02;99392.64;430761;1270;142130;-69
2022/07/23 18:40:08;;;;;;;9.30;8.30;;;;;;;20.83;69.86;99406.25;431387;1270;142465;-69
2022/07/23 18:50:14;;;;;;;8.70;7.90;;;;;;;20.64;70.73;99439.84;433726;1270;144443;-67
2022/07/23 19:00:20;;;;;;;9.60;8.70;;;;;;;20.47;71.55;99450.40;431086;1270;142260;-68
2022/07/23 19:10:26;;;;;;;9.00;8.10;;;;;;;20.30;72.12;99461.35;432159;1270;141652;-69
2022/07/23 19:20:32;;;;;;;8.80;8.00;;;;;;;20.25;72.69;99460.35;431896;1270;141840;-69
2022/07/23 19:30:39;;;;;;;10.50;8.80;;;;;;;20.22;73.10;99465.41;431678;1271;142488;-70
2022/07/23 19:40:45;;;;;;;11.00;9.90;;;;;;;20.16;73.70;99471.77;431499;1270;147331;-69
2022/07/23 19:50:52;;;;;;;10.50;9.50;;;;;;;20.14;73.97;99485.00;431350;1271;142271;-67
2022/07/23 20:00:57;;;;;;;9.90;8.90;;;;;;;20.09;74.24;99501.08;431881;1270;144600;-70
2022/07/23 20:11:04;;;;;;;11.70;8.80;;;;;;;20.07;74.33;99505.76;431438;1270;142728;-70
2022/07/23 20:21:10;;;;;;;12.90;8.20;;;;;;;20.06;74.33;99507.59;432205;1270;143255;-71
2022/07/23 20:31:16;;;;;;;9.70;8.50;;;;;;;20.02;74.49;99507.48;432833;1270;143810;-70
2022/07/23 20:41:22;;;;;;;9.20;8.30;;;;;;;19.98;74.84;99501.38;431426;1270;146777;-70
2022/07/23 20:51:30;;;;;;;9.90;8.90;;;;;;;19.95;74.92;99501.30;432264;1270;152553;-71
2022/07/23 21:01:36;;;;;;;15.90;8.90;;;;;;;19.96;75.38;99505.36;431578;1270;144116;-69
2022/07/23 21:11:42;;;;;;;12.00;10.30;;;;;;;19.97;75.55;99508.73;430999;1271;142372;-68
2022/07/23 21:21:48;;;;;;;10.30;9.50;;;;;;;19.98;75.88;99513.58;431783;1271;142056;-70
2022/07/23 21:31:54;;;;;;;12.70;11.40;;;;;;;19.95;76.06;99529.95;431561;1271;194670;-69
2022/07/23 21:42:00;;;;;;;12.20;11.00;;;;;;;19.91;76.43;99542.02;432461;1271;142245;-69
2022/07/23 21:52:06;;;;;;;13.20;11.90;;;;;;;19.87;76.74;99551.27;432469;1270;143170;-69
2022/07/23 22:02:12;;;;;;;16.40;14.70;;;;;;;19.80;77.27;99552.27;431235;1271;142707;-68
2022/07/23 22:12:18;;;;;;;17.00;15.50;;;;;;;19.78;77.66;99548.16;431803;1271;146085;-70
2022/07/23 22:22:24;;;;;;;16.80;15.20;;;;;;;19.76;78.62;99540.36;431644;1271;142166;-71
2022/07/23 22:32:30;;;;;;;17.60;15.90;;;;;;;19.83;79.04;99544.05;431169;1271;142713;-70
2022/07/23 22:42:36;;;;;;;18.80;17.00;;;;;;;19.87;79.33;99551.07;431059;1271;142047;-71
2022/07/23 22:52:42;;;;;;;19.40;17.70;;;;;;;19.92;79.33;99552.96;431393;1270;144329;-71
2022/07/23 23:02:48;;;;;;;18.60;16.80;;;;;;;19.88;79.04;99547.13;431632;1271;142818;-71
2022/07/23 23:12:54;;;;;;;17.00;15.60;;;;;;;19.81;79.40;99545.88;432037;1270;143713;-71
2022/07/23 23:22:59;;;;;;;17.70;16.00;;;;;;;19.69;78.87;99546.91;431315;1270;336261;-70
2022/07/23 23:33:06;;;;;;;15.10;13.70;;;;;;;19.59;78.73;99550.23;432133;1270;142615;-70
2022/07/23 23:43:12;;;;;;;15.00;13.70;;;;;;;19.51;78.69;99555.51;432420;1270;142161;-71
2022/07/23 23:53:18;;;;;;;17.10;13.90;;;;;;;19.38;78.94;99559.52;431823;1270;144201;-71
